Time;durP1;ratioP1;P1;durP2;ratioP2;P2;SDS_P1;SDS_P2;PMS_P1;PMS_P2;Temp;Humidity;BMP_temperature;BMP_pressure;BME280_temperature;BME280_humidity;BME280_pressure;Samples;Min_cycle;Max_cycle;Signal;HPM_P1;HPM_P2
2021/01/26 00:00:45;;;;;;;11.83;5.57;;;4.40;74.80;;;;;;5014539;28;20041;-79
2021/01/26 00:03:11;;;;;;;8.37;5.60;;;4.40;74.10;;;;;;5014339;28;20026;-78
2021/01/26 00:05:37;;;;;;;8.43;5.63;;;4.40;74.30;;;;;;5014363;28;20479;-73
2021/01/26 00:08:03;;;;;;;8.27;5.60;;;4.40;74.40;;;;;;5013937;28;20037;-72
2021/01/26 00:10:29;;;;;;;10.60;6.73;;;4.40;74.00;;;;;;5014393;28;20100;-75
2021/01/26 00:12:55;;;;;;;9.50;5.57;;;4.40;73.60;;;;;;5013980;28;20479;-72
2021/01/26 00:15:21;;;;;;;9.70;6.00;;;4.40;73.80;;;;;;5014027;28;20030;-78
2021/01/26 00:17:47;;;;;;;10.30;6.87;;;4.40;74.30;;;;;;5014222;28;20029;-78
2021/01/26 00:20:14;;;;;;;10.13;6.90;;;4.40;73.70;;;;;;5014124;28;20068;-73
2021/01/26 00:22:40;;;;;;;9.60;6.37;;;4.30;74.80;;;;;;5013311;28;20333;-72
2021/01/26 00:25:07;;;;;;;12.40;6.90;;;4.40;74.50;;;;;;5013852;28;20026;-78
2021/01/26 00:27:33;;;;;;;11.07;6.70;;;4.30;73.60;;;;;;5013901;28;20026;-73
2021/01/26 00:29:59;;;;;;;10.90;6.53;;;4.30;73.50;;;;;;5013842;28;20076;-73
2021/01/26 00:32:24;;;;;;;10.30;6.47;;;4.40;74.60;;;;;;5013823;28;20530;-77
2021/01/26 00:34:51;;;;;;;9.40;5.50;;;4.30;75.10;;;;;;5013739;28;20060;-75
2021/01/26 00:37:17;;;;;;;10.50;6.97;;;4.40;74.80;;;;;;5013794;28;20433;-75
2021/01/26 00:39:43;;;;;;;14.07;6.87;;;4.40;74.60;;;;;;5014015;28;20030;-72
2021/01/26 00:42:08;;;;;;;10.70;6.43;;;4.30;73.70;;;;;;5013654;28;20034;-78
2021/01/26 00:44:34;;;;;;;11.73;6.30;;;4.30;74.30;;;;;;5013497;28;20032;-74
2021/01/26 00:47:00;;;;;;;10.50;7.07;;;4.30;74.60;;;;;;5013615;28;20985;-78
2021/01/26 00:49:25;;;;;;;13.13;8.63;;;4.30;74.60;;;;;;5013536;28;20030;-74
2021/01/26 00:51:51;;;;;;;11.00;7.97;;;4.30;74.70;;;;;;5013515;28;20026;-78
2021/01/26 00:54:17;;;;;;;11.43;6.80;;;4.30;74.70;;;;;;5013315;28;20034;-79
2021/01/26 00:56:42;;;;;;;10.87;6.80;;;4.20;73.60;;;;;;5013287;28;20501;-73
2021/01/26 00:59:08;;;;;;;10.43;6.83;;;4.20;74.60;;;;;;5013274;28;20025;-75
2021/01/26 01:01:34;;;;;;;10.83;6.70;;;4.20;74.80;;;;;;5013561;28;20033;-72
2021/01/26 01:03:59;;;;;;;19.87;7.17;;;4.20;74.60;;;;;;5013270;28;20026;-78
2021/01/26 01:06:25;;;;;;;13.50;7.83;;;4.10;74.60;;;;;;5013443;28;20050;-78
2021/01/26 01:08:51;;;;;;;9.60;6.30;;;4.20;74.60;;;;;;5013389;28;20092;-78
2021/01/26 01:11:16;;;;;;;10.70;6.00;;;4.10;74.50;;;;;;5013241;28;20026;-79
2021/01/26 01:13:42;;;;;;;8.03;5.40;;;4.10;75.00;;;;;;5013165;28;20558;-72
2021/01/26 01:16:08;;;;;;;9.27;6.20;;;4.00;74.40;;;;;;5013138;28;20108;-73
2021/01/26 01:18:33;;;;;;;11.93;6.27;;;4.00;74.50;;;;;;5013084;28;20080;-73
2021/01/26 01:20:59;;;;;;;9.23;6.03;;;4.00;74.60;;;;;;5011665;28;20121;-78
2021/01/26 01:23:25;;;;;;;11.83;6.47;;;4.00;74.50;;;;;;5012944;28;20459;-76
2021/01/26 01:25:58;;;;;;;8.57;5.80;;;4.00;74.40;;;;;;5013136;28;20030;-78
2021/01/26 01:28:24;;;;;;;9.37;6.43;;;4.00;74.50;;;;;;5012874;28;20038;-78
2021/01/26 01:30:50;;;;;;;9.50;6.20;;;4.00;73.90;;;;;;5013027;28;20022;-78
2021/01/26 01:33:15;;;;;;;8.83;6.03;;;3.90;74.50;;;;;;5013078;28;20030;-78
2021/01/26 01:35:42;;;;;;;10.17;6.57;;;3.90;75.00;;;;;;5014417;28;20022;-78
2021/01/26 01:38:07;;;;;;;9.43;6.10;;;3.90;74.20;;;;;;5016840;28;20030;-72
2021/01/26 01:40:34;;;;;;;8.60;5.80;;;3.90;74.60;;;;;;5017012;28;20059;-77
2021/01/26 01:43:00;;;;;;;11.10;6.50;;;3.90;74.40;;;;;;5017098;28;20026;-78
2021/01/26 01:45:27;;;;;;;9.97;5.97;;;3.90;74.30;;;;;;5016994;28;20026;-79
2021/01/26 01:47:58;;;;;;;10.57;6.40;;;3.90;74.00;;;;;;5016664;28;20033;-73
2021/01/26 01:50:45;;;;;;;10.30;6.20;;;3.80;73.50;;;;;;5016903;28;20072;-73
2021/01/26 01:53:20;;;;;;;8.60;6.30;;;3.80;74.30;;;;;;5016507;28;20026;-77
2021/01/26 01:55:56;;;;;;;12.37;6.13;;;3.80;74.40;;;;;;5016717;28;20132;-72
2021/01/26 01:58:29;;;;;;;11.20;6.13;;;3.80;74.70;;;;;;5014709;28;20034;-72
2021/01/26 02:01:03;;;;;;;9.25;5.85;;;3.70;74.70;;;;;;5014043;28;20033;-72
2021/01/26 02:03:32;;;;;;;9.80;5.60;;;3.70;74.50;;;;;;5014071;28;20083;-73
2021/01/26 02:06:00;;;;;;;8.70;5.50;;;3.70;74.60;;;;;;5016273;28;20018;-77
2021/01/26 02:08:37;;;;;;;8.23;5.63;;;3.60;73.90;;;;;;5015979;28;20399;-75
2021/01/26 02:11:03;;;;;;;7.33;5.43;;;3.60;73.60;;;;;;5016120;28;20018;-73
2021/01/26 02:13:28;;;;;;;10.03;5.83;;;3.60;73.60;;;;;;5016328;28;20037;-73
2021/01/26 02:15:58;;;;;;;8.17;5.60;;;3.60;73.70;;;;;;5016094;28;20018;-76
2021/01/26 02:18:43;;;;;;;7.00;4.97;;;3.60;72.80;;;;;;5015991;28;20048;-72
2021/01/26 02:21:24;;;;;;;8.93;5.30;;;3.60;72.70;;;;;;5014798;28;20525;-76
2021/01/26 02:24:21;;;;;;;7.00;5.10;;;3.60;72.30;;;;;;5014767;28;20033;-73
2021/01/26 02:26:53;;;;;;;8.83;5.63;;;3.50;73.10;;;;;;5014715;28;20030;-79
2021/01/26 02:29:33;;;;;;;9.73;5.10;;;3.60;72.70;;;;;;5014491;28;20045;-77
2021/01/26 02:32:29;;;;;;;8.13;5.50;;;3.60;72.90;;;;;;5014962;28;20037;-76
2021/01/26 02:35:04;;;;;;;7.80;5.03;;;3.60;71.70;;;;;;5014400;28;20046;-72
2021/01/26 02:37:38;;;;;;;9.63;5.03;;;3.50;72.10;;;;;;5014504;28;20030;-79
2021/01/26 02:40:53;;;;;;;7.90;5.17;;;3.50;72.00;;;;;;5014822;28;20026;-72
2021/01/26 02:43:31;;;;;;;7.77;5.50;;;3.50;72.00;;;;;;5013515;28;20042;-78
2021/01/26 02:46:30;;;;;;;7.77;5.17;;;3.50;72.20;;;;;;5014320;28;20385;-78
2021/01/26 02:49:17;;;;;;;6.87;4.70;;;3.50;72.70;;;;;;5014602;28;20109;-78
2021/01/26 02:51:54;;;;;;;6.03;4.37;;;3.50;72.60;;;;;;5014046;28;20037;-73
2021/01/26 02:54:39;;;;;;;7.77;5.00;;;3.50;71.80;;;;;;5014471;28;20029;-76
2021/01/26 02:57:11;;;;;;;8.93;4.60;;;3.50;72.00;;;;;;5014442;28;20022;-78
2021/01/26 02:59:41;;;;;;;6.87;4.47;;;3.50;70.90;;;;;;5014433;28;20018;-72
2021/01/26 03:02:23;;;;;;;6.20;4.83;;;3.50;70.40;;;;;;5014416;28;20037;-78
2021/01/26 03:05:07;;;;;;;7.87;4.00;;;3.50;70.70;;;;;;5014449;28;20022;-78
2021/01/26 03:07:38;;;;;;;9.00;4.73;;;3.40;71.90;;;;;;5014307;28;20057;-77
2021/01/26 03:10:09;;;;;;;9.90;4.83;;;3.40;70.70;;;;;;5014361;28;20034;-72
2021/01/26 03:12:39;;;;;;;6.17;4.47;;;3.40;71.60;;;;;;5014180;28;20121;-78
2021/01/26 03:15:15;;;;;;;7.93;5.00;;;3.40;71.40;;;;;;5014209;28;20075;-77
2021/01/26 03:17:47;;;;;;;7.83;5.20;;;3.40;71.80;;;;;;5014098;28;20033;-76
2021/01/26 03:20:19;;;;;;;7.00;4.53;;;3.30;72.00;;;;;;4990180;28;700025;-72
2021/01/26 03:22:49;;;;;;;7.18;4.90;;;3.30;72.00;;;;;;5015076;28;20494;-74
2021/01/26 03:25:18;;;;;;;8.53;4.83;;;3.30;71.70;;;;;;5015056;28;20391;-78
2021/01/26 03:27:44;;;;;;;8.57;5.30;;;3.30;72.30;;;;;;5015034;28;20095;-78
2021/01/26 03:30:16;;;;;;;8.60;4.73;;;3.30;72.10;;;;;;5015158;28;20026;-71
2021/01/26 03:32:47;;;;;;;8.20;5.93;;;3.30;71.60;;;;;;5029929;28;20026;-78
2021/01/26 03:35:15;;;;;;;13.77;9.27;;;3.20;72.50;;;;;;5014679;28;20036;-72
2021/01/26 03:37:47;;;;;;;13.27;9.23;;;3.20;72.00;;;;;;5014731;28;20029;-72
2021/01/26 03:40:13;;;;;;;16.50;9.68;;;3.20;72.90;;;;;;5014857;28;20475;-73
2021/01/26 03:42:38;;;;;;;16.50;10.90;;;3.10;73.20;;;;;;5014327;28;20022;-73
2021/01/26 03:45:07;;;;;;;17.13;9.87;;;2.90;73.30;;;;;;5014471;28;20026;-72
2021/01/26 03:47:55;;;;;;;18.57;9.97;;;2.80;73.90;;;;;;5014196;28;20034;-73
2021/01/26 03:50:57;;;;;;;17.00;10.90;;;2.80;74.30;;;;;;5014645;28;20424;-78
2021/01/26 03:53:48;;;;;;;16.50;10.87;;;2.80;74.50;;;;;;5014622;28;20056;-73
2021/01/26 03:56:50;;;;;;;15.77;9.57;;;2.70;74.60;;;;;;5014577;28;20033;-72
2021/01/26 03:59:36;;;;;;;13.13;8.60;;;2.60;75.00;;;;;;5013386;28;20426;-77
2021/01/26 04:02:05;;;;;;;14.33;7.90;;;2.60;74.80;;;;;;5012670;28;20364;-72
2021/01/26 04:04:56;;;;;;;12.10;7.93;;;2.60;74.80;;;;;;5014499;28;20081;-76
2021/01/26 04:07:42;;;;;;;13.80;8.10;;;2.50;74.80;;;;;;5014193;28;20030;-73
2021/01/26 04:10:31;;;;;;;9.73;5.93;;;2.50;76.00;;;;;;5014333;28;20032;-72
2021/01/26 04:13:01;;;;;;;9.63;5.73;;;2.40;75.80;;;;;;5014072;28;20108;-72
2021/01/26 04:15:37;;;;;;;9.87;6.13;;;2.40;76.00;;;;;;5014030;28;20056;-78
2021/01/26 04:18:05;;;;;;;9.13;6.10;;;2.40;76.00;;;;;;5014228;28;20037;-77
2021/01/26 04:20:35;;;;;;;13.67;6.30;;;2.40;75.60;;;;;;5014064;28;20058;-77
2021/01/26 04:23:02;;;;;;;8.47;6.53;;;2.50;75.20;;;;;;5014161;28;20494;-72
2021/01/26 04:25:37;;;;;;;12.70;7.27;;;2.50;74.80;;;;;;5013892;28;20411;-77
2021/01/26 04:28:10;;;;;;;14.73;6.83;;;2.50;74.50;;;;;;5013870;28;20069;-73
2021/01/26 04:30:36;;;;;;;14.57;7.97;;;2.40;74.90;;;;;;5012653;28;20026;-72
2021/01/26 04:33:04;;;;;;;11.63;7.30;;;2.40;75.20;;;;;;5012518;28;20032;-78
2021/01/26 04:35:30;;;;;;;12.27;7.57;;;2.40;74.90;;;;;;5014045;28;20386;-72
2021/01/26 04:37:56;;;;;;;15.00;8.27;;;2.40;75.50;;;;;;5013969;28;20108;-74
2021/01/26 04:40:23;;;;;;;17.37;9.40;;;2.30;75.50;;;;;;5013447;28;20491;-73
2021/01/26 04:42:55;;;;;;;12.00;8.13;;;2.30;75.70;;;;;;5013731;28;20026;-73
2021/01/26 04:45:50;;;;;;;17.02;8.65;;;2.20;76.00;;;;;;5013839;28;20026;-73
2021/01/26 04:48:26;;;;;;;15.47;9.07;;;2.20;76.10;;;;;;5013271;28;20049;-72
2021/01/26 04:51:28;;;;;;;13.80;9.37;;;2.30;76.30;;;;;;5013584;28;20510;-76
2021/01/26 04:54:12;;;;;;;12.80;8.30;;;2.20;76.50;;;;;;5013687;28;20108;-77
2021/01/26 04:56:53;;;;;;;14.90;8.67;;;2.20;76.30;;;;;;5013224;28;20026;-72
2021/01/26 04:59:24;;;;;;;12.60;7.67;;;2.20;76.00;;;;;;5013394;28;20022;-78
2021/01/26 05:02:16;;;;;;;12.67;7.47;;;2.20;76.90;;;;;;5013805;28;20033;-77
2021/01/26 05:04:46;;;;;;;11.60;6.47;;;2.10;76.70;;;;;;5012656;28;20132;-72
2021/01/26 05:07:20;;;;;;;11.67;7.20;;;2.10;76.50;;;;;;5013104;28;20479;-72
2021/01/26 05:10:24;;;;;;;11.33;6.80;;;2.20;76.40;;;;;;5013201;28;20360;-72
2021/01/26 05:12:56;;;;;;;8.83;6.33;;;2.10;76.20;;;;;;5012718;28;20149;-77
2021/01/26 05:15:26;;;;;;;10.87;7.43;;;2.10;76.30;;;;;;5013164;28;20087;-78
2021/01/26 05:17:58;;;;;;;11.07;7.30;;;2.10;76.00;;;;;;5013220;28;20025;-78
2021/01/26 05:20:29;;;;;;;10.38;6.60;;;2.10;75.70;;;;;;5013075;28;20050;-72
2021/01/26 05:23:05;;;;;;;12.57;6.50;;;2.00;75.60;;;;;;5013304;28;20501;-78
2021/01/26 05:25:31;;;;;;;11.70;6.00;;;2.00;75.40;;;;;;5013188;28;20037;-77
2021/01/26 05:27:57;;;;;;;10.57;5.67;;;2.00;75.40;;;;;;5013023;28;20037;-73
2021/01/26 05:30:29;;;;;;;10.90;6.50;;;2.00;75.50;;;;;;5013009;28;20057;-73
2021/01/26 05:33:08;;;;;;;13.80;7.13;;;1.90;75.20;;;;;;5013024;28;20025;-78
2021/01/26 05:35:37;;;;;;;14.60;8.37;;;1.90;75.50;;;;;;5012953;28;20045;-73
2021/01/26 05:38:03;;;;;;;12.83;7.13;;;1.90;75.60;;;;;;5011632;28;20559;-73
2021/01/26 05:40:35;;;;;;;14.77;7.33;;;1.80;76.00;;;;;;5013043;28;20118;-78
2021/01/26 05:43:05;;;;;;;12.32;8.05;;;1.80;76.00;;;;;;5013186;28;20450;-72
2021/01/26 05:45:46;;;;;;;12.13;7.83;;;1.80;76.20;;;;;;5013062;28;20336;-76
2021/01/26 05:48:14;;;;;;;15.47;7.73;;;1.70;76.30;;;;;;5012897;28;20046;-78
2021/01/26 05:50:42;;;;;;;14.47;7.77;;;1.70;76.40;;;;;;5012868;28;20026;-77
2021/01/26 05:53:28;;;;;;;15.57;8.10;;;1.70;76.20;;;;;;5012844;28;20467;-75
2021/01/26 05:56:14;;;;;;;13.57;7.47;;;1.70;76.40;;;;;;5012746;28;20030;-73
2021/01/26 05:58:49;;;;;;;11.80;6.90;;;1.70;76.40;;;;;;5012616;28;20033;-79
2021/01/26 06:01:34;;;;;;;13.63;7.37;;;1.70;76.40;;;;;;5012697;28;20025;-78
2021/01/26 06:04:08;;;;;;;9.70;6.60;;;1.70;76.40;;;;;;5012891;28;20482;-72
2021/01/26 06:06:59;;;;;;;12.43;7.23;;;1.70;76.00;;;;;;5012601;28;20116;-73
2021/01/26 06:09:38;;;;;;;10.00;6.50;;;1.70;76.10;;;;;;5012654;28;20042;-78
2021/01/26 06:12:22;;;;;;;11.33;6.30;;;1.70;76.20;;;;;;5012684;28;20022;-79
2021/01/26 06:15:05;;;;;;;10.00;6.63;;;1.70;76.20;;;;;;5012789;28;20449;-78
2021/01/26 06:17:31;;;;;;;11.07;6.50;;;1.70;76.00;;;;;;5012353;28;20030;-78
2021/01/26 06:20:23;;;;;;;10.77;6.67;;;1.70;76.70;;;;;;5012546;28;20070;-72
2021/01/26 06:22:50;;;;;;;9.60;6.10;;;1.70;76.40;;;;;;5015452;28;20121;-78
2021/01/26 06:25:24;;;;;;;9.00;6.33;;;1.60;76.90;;;;;;5016221;28;20029;-73
2021/01/26 06:28:26;;;;;;;9.53;6.13;;;1.70;76.20;;;;;;5016109;28;20040;-78
2021/01/26 06:31:26;;;;;;;19.57;7.40;;;1.60;76.30;;;;;;5016130;28;20030;-75
2021/01/26 06:34:21;;;;;;;16.93;6.97;;;1.60;76.50;;;;;;5015304;28;20033;-72
2021/01/26 06:37:03;;;;;;;13.80;7.60;;;1.60;76.60;;;;;;5015619;28;20034;-72
2021/01/26 06:39:56;;;;;;;10.85;6.95;;;1.60;76.60;;;;;;5015908;28;20018;-76
2021/01/26 06:42:47;;;;;;;13.63;6.90;;;1.50;76.40;;;;;;5015933;28;20368;-77
2021/01/26 06:45:27;;;;;;;12.70;6.50;;;1.60;76.00;;;;;;5015828;28;20108;-75
2021/01/26 06:48:14;;;;;;;11.27;7.10;;;1.70;75.30;;;;;;5015543;28;20038;-73
2021/01/26 06:50:42;;;;;;;11.43;6.63;;;1.70;75.50;;;;;;5015652;28;20069;-78
2021/01/26 06:53:26;;;;;;;11.20;6.40;;;1.70;75.80;;;;;;5015699;28;20025;-72
2021/01/26 06:56:20;;;;;;;9.87;6.13;;;1.60;75.70;;;;;;5015632;28;20071;-72
2021/01/26 06:58:49;;;;;;;16.93;6.80;;;1.60;75.90;;;;;;5015744;28;20111;-71
2021/01/26 07:01:36;;;;;;;14.07;6.47;;;1.60;76.10;;;;;;5015451;28;20068;-71
2021/01/26 07:04:50;;;;;;;11.63;6.63;;;1.60;76.10;;;;;;5015153;28;20041;-71
2021/01/26 07:07:25;;;;;;;11.35;6.95;;;1.60;76.20;;;;;;5015161;28;20054;-72
2021/01/26 07:10:18;;;;;;;12.30;6.53;;;1.60;76.20;;;;;;5015640;28;20029;-72
2021/01/26 07:13:06;;;;;;;11.40;6.63;;;1.60;76.30;;;;;;5015613;28;20056;-72
2021/01/26 07:15:58;;;;;;;15.53;7.47;;;1.60;76.60;;;;;;5015457;28;20018;-71
2021/01/26 07:18:50;;;;;;;12.33;6.90;;;1.60;76.40;;;;;;5011619;28;20030;-67
2021/01/26 07:21:41;;;;;;;12.23;7.63;;;1.70;76.80;;;;;;5010838;28;20438;-68
2021/01/26 07:24:36;;;;;;;11.80;6.90;;;1.70;76.50;;;;;;5012617;28;20061;-68
2021/01/26 07:27:31;;;;;;;19.60;8.33;;;1.70;76.80;;;;;;5014680;28;20477;-69
2021/01/26 07:30:18;;;;;;;15.63;8.63;;;1.70;76.00;;;;;;5014997;28;20394;-68
2021/01/26 07:33:05;;;;;;;14.40;8.57;;;1.70;76.80;;;;;;5013895;28;20033;-68
2021/01/26 07:35:42;;;;;;;13.23;7.80;;;1.70;76.90;;;;;;5015186;28;20025;-70
2021/01/26 07:38:14;;;;;;;18.63;8.83;;;1.80;77.00;;;;;;5014910;28;20494;-68
2021/01/26 07:40:55;;;;;;;17.33;9.07;;;1.80;76.80;;;;;;5014794;28;20022;-67
2021/01/26 07:43:32;;;;;;;20.80;9.03;;;1.90;75.70;;;;;;5015108;28;20387;-68
2021/01/26 07:46:03;;;;;;;24.57;9.23;;;1.90;76.80;;;;;;5015413;28;20030;-68
2021/01/26 07:48:38;;;;;;;16.70;10.37;;;2.00;77.10;;;;;;5014227;28;20046;-68
2021/01/26 07:51:08;;;;;;;22.17;11.33;;;2.00;77.00;;;;;;5014700;28;20022;-67
2021/01/26 07:53:45;;;;;;;27.03;13.03;;;2.10;77.40;;;;;;5015010;28;20022;-67
2021/01/26 07:56:37;;;;;;;22.73;10.67;;;2.20;77.60;;;;;;5014776;28;20141;-67
2021/01/26 07:59:16;;;;;;;17.97;9.00;;;2.30;77.70;;;;;;5014437;28;20045;-67
2021/01/26 08:01:54;;;;;;;15.57;8.87;;;2.40;77.70;;;;;;5014467;28;20378;-67
2021/01/26 08:04:20;;;;;;;19.27;9.90;;;2.50;75.50;;;;;;5014299;28;20025;-68
2021/01/26 08:06:55;;;;;;;19.73;11.37;;;2.60;75.60;;;;;;5014440;28;20069;-68
2021/01/26 08:09:32;;;;;;;19.03;11.70;;;2.70;75.60;;;;;;5013987;28;20049;-67
2021/01/26 08:12:02;;;;;;;16.70;10.43;;;2.70;75.80;;;;;;5014051;28;20033;-67
2021/01/26 08:14:46;;;;;;;15.37;9.27;;;2.90;75.10;;;;;;5014029;28;20050;-67
2021/01/26 08:17:17;;;;;;;17.37;9.23;;;3.00;74.00;;;;;;5014335;28;20072;-68
2021/01/26 08:19:46;;;;;;;17.97;9.13;;;3.10;73.30;;;;;;5013851;28;20054;-67
2021/01/26 08:22:17;;;;;;;19.07;9.00;;;3.10;73.80;;;;;;5014005;28;20030;-67
2021/01/26 08:24:45;;;;;;;15.10;8.80;;;3.20;73.50;;;;;;5014121;28;20026;-67
2021/01/26 08:27:37;;;;;;;16.43;8.90;;;3.30;73.80;;;;;;5013662;28;20030;-67
2021/01/26 08:30:11;;;;;;;17.17;8.63;;;3.40;74.00;;;;;;5012189;28;20423;-68
2021/01/26 08:32:36;;;;;;;15.70;9.17;;;3.40;71.70;;;;;;5011375;28;20160;-68
2021/01/26 08:35:22;;;;;;;14.73;9.23;;;3.50;72.10;;;;;;5011739;28;20113;-68
2021/01/26 08:37:52;;;;;;;18.37;10.87;;;3.60;72.00;;;;;;5013931;28;20053;-68
2021/01/26 08:40:20;;;;;;;20.47;12.57;;;3.60;71.70;;;;;;5013886;28;20022;-68
2021/01/26 08:42:48;;;;;;;21.73;13.00;;;3.60;72.30;;;;;;5013508;28;20048;-68
2021/01/26 08:45:26;;;;;;;16.93;11.70;;;3.60;73.50;;;;;;5013454;28;20033;-68
2021/01/26 08:47:59;;;;;;;20.20;12.20;;;3.70;73.50;;;;;;5013750;28;20029;-68
2021/01/26 08:50:31;;;;;;;22.45;12.50;;;3.70;72.10;;;;;;5013806;28;20026;-68
2021/01/26 08:53:35;;;;;;;17.65;11.55;;;3.80;72.60;;;;;;5012519;28;20033;-68
2021/01/26 08:56:03;;;;;;;13.68;8.95;;;3.90;72.70;;;;;;5011480;28;20118;-68
2021/01/26 08:58:45;;;;;;;15.17;8.83;;;4.00;71.60;;;;;;5013365;28;20033;-68
2021/01/26 09:01:22;;;;;;;13.10;7.60;;;4.10;71.20;;;;;;5013859;28;20034;-68
2021/01/26 09:03:53;;;;;;;10.67;7.30;;;4.20;70.60;;;;;;5013760;28;20030;-68
2021/01/26 09:06:43;;;;;;;10.70;7.17;;;4.30;70.30;;;;;;5013565;28;20022;-68
2021/01/26 09:09:24;;;;;;;13.10;8.40;;;4.40;70.80;;;;;;5013419;28;20551;-68
2021/01/26 09:11:59;;;;;;;12.40;8.33;;;4.50;70.60;;;;;;5011775;28;20026;-68
2021/01/26 09:14:58;;;;;;;15.23;7.97;;;4.60;70.10;;;;;;5012868;28;20036;-67
2021/01/26 09:17:30;;;;;;;14.10;7.40;;;4.70;70.40;;;;;;5012184;28;20029;-67
2021/01/26 09:20:10;;;;;;;16.73;7.80;;;4.80;69.80;;;;;;5011511;28;20414;-68
2021/01/26 09:22:36;;;;;;;12.27;7.83;;;4.80;69.30;;;;;;4993429;28;20038;-68
2021/01/26 09:25:05;;;;;;;14.23;8.97;;;4.90;69.30;;;;;;4996217;28;20141;-68
2021/01/26 09:27:34;;;;;;;15.97;9.30;;;5.00;68.80;;;;;;5012453;28;20494;-68
2021/01/26 09:30:23;;;;;;;16.13;9.30;;;5.10;68.90;;;;;;5012662;28;20030;-76
2021/01/26 09:33:18;;;;;;;14.97;9.10;;;5.20;68.60;;;;;;5012565;28;20018;-68
2021/01/26 09:35:54;;;;;;;12.37;8.40;;;5.30;68.30;;;;;;5009459;28;20049;-69
2021/01/26 09:38:49;;;;;;;13.23;7.70;;;5.50;67.10;;;;;;5012412;28;20109;-68
2021/01/26 09:41:14;;;;;;;17.63;7.70;;;5.60;66.80;;;;;;5011810;28;20089;-67
2021/01/26 09:43:43;;;;;;;13.63;8.83;;;5.60;66.50;;;;;;5013139;28;20478;-67
2021/01/26 09:46:42;;;;;;;15.30;8.57;;;5.70;65.70;;;;;;5012457;28;20030;-68
2021/01/26 09:49:26;;;;;;;14.27;8.23;;;5.80;65.40;;;;;;5012710;28;20085;-68
2021/01/26 09:52:00;;;;;;;15.63;8.90;;;5.70;66.00;;;;;;5013115;28;20034;-67
2021/01/26 09:54:29;;;;;;;12.50;8.77;;;5.80;67.00;;;;;;5012704;28;20041;-67
2021/01/26 09:56:57;;;;;;;12.77;7.97;;;5.80;67.20;;;;;;5013362;28;20030;-68
2021/01/26 09:59:25;;;;;;;12.37;7.40;;;5.90;67.50;;;;;;5015505;28;20026;-67
2021/01/26 10:01:51;;;;;;;9.10;6.07;;;5.90;65.90;;;;;;5016598;28;20076;-68
2021/01/26 10:04:20;;;;;;;10.03;6.43;;;6.00;65.90;;;;;;5016640;28;20030;-67
2021/01/26 10:06:47;;;;;;;11.00;6.60;;;6.10;65.70;;;;;;5016558;28;20563;-68
2021/01/26 10:09:26;;;;;;;12.53;7.13;;;6.20;66.00;;;;;;5016390;28;20048;-68
2021/01/26 10:11:53;;;;;;;12.87;6.53;;;6.30;66.00;;;;;;5016836;28;20026;-68
2021/01/26 10:14:27;;;;;;;8.23;5.87;;;6.40;64.20;;;;;;5016843;28;20471;-68
2021/01/26 10:16:55;;;;;;;7.50;5.10;;;6.50;63.50;;;;;;5016505;28;20364;-67
2021/01/26 10:19:28;;;;;;;10.33;4.83;;;6.60;63.60;;;;;;5016077;28;20026;-68
2021/01/26 10:22:06;;;;;;;8.97;4.60;;;6.70;63.30;;;;;;5016493;28;20030;-70
2021/01/26 10:24:34;;;;;;;6.00;4.60;;;;;;;;;;5014458;28;20526;-67
2021/01/26 10:27:14;;;;;;;9.27;4.97;;;;;;;;;;5015209;28;20026;-68
2021/01/26 10:29:44;;;;;;;7.40;4.13;;;6.80;62.80;;;;;;5016307;28;20108;-68
2021/01/26 10:32:12;;;;;;;5.90;4.03;;;7.20;60.90;;;;;;5016225;28;20034;-68
2021/01/26 10:34:40;;;;;;;5.87;3.50;;;7.30;60.40;;;;;;5016093;28;20471;-68
2021/01/26 10:37:15;;;;;;;6.90;3.83;;;7.40;60.50;;;;;;5016054;28;20055;-67
2021/01/26 10:39:43;;;;;;;7.00;3.50;;;7.50;59.60;;;;;;5016007;28;20096;-67
2021/01/26 10:42:24;;;;;;;8.07;3.43;;;7.60;59.30;;;;;;5016542;28;20356;-67
2021/01/26 10:44:52;;;;;;;15.23;3.80;;;7.70;59.30;;;;;;5016068;28;20547;-68
2021/01/26 10:47:34;;;;;;;5.53;3.10;;;7.80;58.50;;;;;;5015637;28;20037;-68
2021/01/26 10:50:14;;;;;;;6.82;3.80;;;7.90;57.60;;;;;;5015803;28;20053;-67
2021/01/26 10:52:48;;;;;;;5.47;3.20;;;8.00;56.40;;;;;;5015748;28;20028;-68
2021/01/26 10:55:24;;;;;;;4.03;2.47;;;8.10;56.50;;;;;;5016106;28;20379;-68
2021/01/26 10:57:52;;;;;;;3.50;2.00;;;8.10;55.60;;;;;;5015724;28;20022;-68
2021/01/26 11:00:26;;;;;;;3.87;2.13;;;8.20;55.10;;;;;;5015375;28;20549;-68
2021/01/26 11:02:53;;;;;;;2.00;1.33;;;8.30;53.30;;;;;;5015343;28;20030;-68
2021/01/26 11:05:19;;;;;;;5.57;1.60;;;8.40;53.10;;;;;;5015579;28;20498;-68
2021/01/26 11:07:45;;;;;;;2.07;1.50;;;8.40;52.60;;;;;;5014760;28;20030;-67
2021/01/26 11:10:11;;;;;;;3.40;2.03;;;8.50;52.30;;;;;;5015707;28;20030;-67
2021/01/26 11:12:38;;;;;;;5.83;2.20;;;8.60;49.30;;;;;;5015350;28;20054;-67
2021/01/26 11:15:06;;;;;;;7.03;2.50;;;8.60;51.40;;;;;;5015544;28;20053;-67
2021/01/26 11:17:32;;;;;;;3.37;2.17;;;8.60;52.20;;;;;;5015187;28;20111;-68
2021/01/26 11:19:57;;;;;;;4.50;2.10;;;8.80;52.20;;;;;;5015362;28;20085;-68
2021/01/26 11:22:23;;;;;;;3.90;2.23;;;8.80;51.20;;;;;;5015205;28;20026;-68
2021/01/26 11:24:49;;;;;;;5.40;2.20;;;8.90;52.20;;;;;;5015148;28;20026;-68
2021/01/26 11:27:15;;;;;;;3.23;1.97;;;9.00;48.70;;;;;;5014824;28;20069;-68
2021/01/26 11:29:40;;;;;;;2.50;1.37;;;9.10;49.70;;;;;;5015024;28;20064;-68
2021/01/26 11:32:06;;;;;;;2.10;1.50;;;9.20;50.30;;;;;;5014896;28;20022;-67
2021/01/26 11:34:32;;;;;;;3.33;1.67;;;9.20;49.30;;;;;;5015029;28;20438;-67
2021/01/26 11:36:57;;;;;;;7.47;2.87;;;9.20;49.90;;;;;;5015061;28;20097;-67
2021/01/26 11:39:23;;;;;;;4.37;3.03;;;9.30;49.20;;;;;;5014880;28;20434;-66
2021/01/26 11:41:49;;;;;;;5.57;3.40;;;9.30;49.80;;;;;;5014853;28;20486;-68
2021/01/26 11:44:14;;;;;;;5.10;2.60;;;9.30;50.20;;;;;;5015034;28;20108;-68
2021/01/26 11:46:40;;;;;;;3.87;2.37;;;9.30;51.70;;;;;;5015086;28;20463;-68
2021/01/26 11:49:06;;;;;;;2.87;2.03;;;9.30;52.30;;;;;;5013387;28;20042;-68
2021/01/26 11:51:32;;;;;;;8.37;5.60;;;9.40;51.60;;;;;;5014795;28;20080;-70
2021/01/26 11:53:58;;;;;;;7.50;3.40;;;9.50;50.70;;;;;;5012304;28;20121;-68
2021/01/26 11:56:25;;;;;;;4.07;2.60;;;9.50;50.50;;;;;;5011949;28;20069;-68
2021/01/26 11:58:51;;;;;;;5.23;2.40;;;9.60;49.70;;;;;;5012643;28;20033;-68
2021/01/26 12:01:17;;;;;;;5.60;2.50;;;;;;;;;;5014709;28;20379;-67
2021/01/26 12:03:44;;;;;;;3.20;2.00;;;;;;;;;;5014677;28;20141;-68
2021/01/26 12:06:10;;;;;;;3.07;2.00;;;;;;;;;;5014298;28;20112;-68
2021/01/26 12:08:37;;;;;;;2.80;1.83;;;;;;;;;;5014546;28;20034;-68
2021/01/26 12:11:03;;;;;;;2.90;1.90;;;;;;;;;;5014275;28;20026;-80
2021/01/26 12:13:29;;;;;;;2.50;1.77;;;;;;;;;;5014483;28;20029;-68
2021/01/26 12:15:55;;;;;;;4.17;2.10;;;;;;;;;;5014243;28;20390;-68
2021/01/26 12:18:21;;;;;;;3.37;2.10;;;;;;;;;;5012324;28;20462;-68
2021/01/26 12:20:47;;;;;;;3.83;2.40;;;;;;;;;;5010978;28;20053;-67
2021/01/26 12:23:14;;;;;;;3.73;2.23;;;;;;;;;;5011535;28;20030;-68
2021/01/26 12:25:40;;;;;;;3.80;2.10;;;;;;;;;;5013318;28;20072;-68
2021/01/26 12:28:07;;;;;;;4.00;1.97;;;;;;;;;;5014321;28;20066;-68
2021/01/26 12:30:33;;;;;;;3.10;2.17;;;;;;;;;;5014080;28;20034;-68
2021/01/26 12:32:59;;;;;;;3.10;1.90;;;;;;;;;;5013974;28;20029;-68
2021/01/26 12:35:34;;;;;;;3.17;1.87;;;;;;;;;;5013774;28;20083;-68
2021/01/26 12:38:00;;;;;;;3.83;1.60;;;;;;;;;;5014357;28;20029;-68
2021/01/26 12:40:27;;;;;;;3.57;2.30;;;;;;;;;;5013570;28;20030;-68
2021/01/26 12:42:53;;;;;;;2.53;1.60;;;;;;;;;;5013881;28;20030;-68
2021/01/26 12:45:21;;;;;;;2.00;1.27;;;;;;;;;;5013937;28;20473;-68
2021/01/26 12:47:47;;;;;;;2.60;1.63;;;;;;;;;;5013482;28;20034;-68
2021/01/26 12:50:15;;;;;;;3.43;2.57;;;;;;;;;;5013678;28;20037;-68
2021/01/26 12:52:42;;;;;;;2.57;1.87;;;;;;;;;;5013676;28;20084;-68
2021/01/26 12:55:08;;;;;;;2.47;1.67;;;;;;;;;;5013573;28;20032;-68
2021/01/26 12:57:34;;;;;;;4.40;2.57;;;;;;;;;;5013576;28;20026;-68
2021/01/26 13:00:01;;;;;;;8.10;3.10;;;;;;;;;;5013105;28;20064;-69
2021/01/26 13:02:27;;;;;;;5.13;1.60;;;;;;;;;;5013044;28;20025;-68
2021/01/26 13:04:55;;;;;;;5.33;2.23;;;;;;;;;;5011580;28;20084;-67
2021/01/26 13:07:23;;;;;;;3.20;1.63;;;;;;;;;;5010302;28;20026;-68
2021/01/26 13:09:49;;;;;;;3.17;1.57;;;;;;;;;;5010609;28;20438;-68
2021/01/26 13:12:15;;;;;;;4.03;2.00;;;;;;;;;;5012158;28;20029;-68
2021/01/26 13:14:41;;;;;;;4.53;2.60;;;;;;;;;;5013377;28;20059;-68
2021/01/26 13:17:08;;;;;;;11.60;5.27;;;;;;;;;;5013233;28;20364;-68
2021/01/26 13:19:34;;;;;;;6.40;2.43;;;;;;;;;;5012908;28;20069;-68
2021/01/26 13:22:00;;;;;;;5.30;2.10;;;;;;;;;;5013036;28;20029;-68
2021/01/26 13:24:26;;;;;;;2.97;2.20;;;;;;;;;;5013388;28;20022;-68
2021/01/26 13:26:52;;;;;;;3.83;2.40;;;;;;;;;;5012563;28;20108;-68
2021/01/26 13:29:18;;;;;;;5.70;2.67;;;;;;;;;;5010593;28;20034;-68
2021/01/26 13:31:44;;;;;;;7.07;2.77;;;;;;;;;;4997063;28;20022;-68
2021/01/26 13:34:10;;;;;;;6.47;3.53;;;;;;;;;;5016960;28;20136;-68
2021/01/26 13:36:36;;;;;;;4.93;3.17;;;;;;;;;;5016697;28;20080;-68